Time;durP1;ratioP1;P1;durP2;ratioP2;P2;SDS_P1;SDS_P2;PMS_P1;PMS_P2;Temp;Humidity;BMP_temperature;BMP_pressure;BME280_temperature;BME280_humidity;BME280_pressure;Samples;Min_cycle;Max_cycle;Signal;HPM_P1;HPM_P2
2023/12/12 00:02:12;;;;;;;3.50;1.60;;;22.90;59.30;;;;;;222741;1263;22574;-55
2023/12/12 00:07:17;;;;;;;3.80;1.90;;;22.90;59.60;;;;;;222521;1262;22639;-51
2023/12/12 00:12:21;;;;;;;4.00;1.70;;;23.30;58.70;;;;;;222228;1266;24207;-51
2023/12/12 00:17:25;;;;;;;1.80;1.60;;;23.70;57.70;;;;;;222632;1266;22511;-48
2023/12/12 00:22:29;;;;;;;2.90;1.60;;;23.90;56.80;;;;;;222219;1268;22538;-51
2023/12/12 00:27:33;;;;;;;2.30;1.50;;;24.10;56.50;;;;;;222392;1268;22521;-51
2023/12/12 00:32:38;;;;;;;2.80;1.80;;;24.20;56.00;;;;;;222712;1263;25019;-51
2023/12/12 00:37:42;;;;;;;4.20;1.70;;;24.20;55.90;;;;;;222579;1269;24217;-49
2023/12/12 00:42:46;;;;;;;4.60;1.60;;;24.20;55.90;;;;;;222492;1268;22640;-48
2023/12/12 00:47:50;;;;;;;5.80;1.60;;;24.10;56.40;;;;;;222125;1268;24184;-49
2023/12/12 00:52:54;;;;;;;4.70;1.90;;;24.10;56.00;;;;;;222578;1263;22511;-51
2023/12/12 00:57:59;;;;;;;1.80;1.40;;;24.00;56.10;;;;;;222494;1262;25454;-49
2023/12/12 01:03:03;;;;;;;2.50;1.40;;;23.90;56.00;;;;;;222720;1263;25418;-51
2023/12/12 01:08:08;;;;;;;2.00;1.60;;;23.80;55.80;;;;;;223146;1268;24369;-48
2023/12/12 01:13:14;;;;;;;1.80;1.50;;;23.70;55.90;;;;;;222795;1254;22520;-49
2023/12/12 01:18:18;;;;;;;2.70;1.30;;;23.60;55.30;;;;;;222506;1268;22512;-48
2023/12/12 01:23:23;;;;;;;1.60;1.40;;;23.60;55.80;;;;;;222983;1268;22527;-49
2023/12/12 01:28:27;;;;;;;2.20;1.20;;;23.60;56.60;;;;;;222338;1268;22694;-51
2023/12/12 01:33:31;;;;;;;2.10;1.30;;;23.40;56.00;;;;;;222875;1255;22528;-51
2023/12/12 01:38:36;;;;;;;2.40;1.60;;;23.40;56.00;;;;;;222275;1262;22529;-50
2023/12/12 01:43:40;;;;;;;2.10;1.50;;;23.30;55.90;;;;;;222956;1267;22552;-51
2023/12/12 01:48:45;;;;;;;1.50;1.30;;;23.50;56.30;;;;;;222464;1260;22540;-50
2023/12/12 01:53:51;;;;;;;2.50;1.50;;;23.80;56.00;;;;;;223084;1254;22530;-50
2023/12/12 01:58:57;;;;;;;1.40;1.10;;;23.90;55.10;;;;;;222795;1260;25475;-49
2023/12/12 02:04:02;;;;;;;2.00;1.10;;;24.10;54.70;;;;;;222505;1268;22520;-48
2023/12/12 02:09:07;;;;;;;1.70;1.00;;;24.20;54.50;;;;;;222823;1257;22524;-47
2023/12/12 02:14:11;;;;;;;5.90;1.30;;;24.20;55.10;;;;;;222489;1260;22573;-52
2023/12/12 02:19:17;;;;;;;2.00;1.10;;;24.20;54.00;;;;;;222497;1263;22626;-49
2023/12/12 02:24:21;;;;;;;2.10;1.50;;;24.20;54.80;;;;;;222588;1263;22733;-50
2023/12/12 02:29:25;;;;;;;2.10;1.20;;;24.00;54.60;;;;;;222477;1256;22564;-51
2023/12/12 02:34:29;;;;;;;1.80;1.20;;;24.00;54.60;;;;;;222607;1260;22529;-50
2023/12/12 02:39:34;;;;;;;1.70;1.00;;;23.80;55.00;;;;;;222547;1264;24462;-49
2023/12/12 02:44:38;;;;;;;2.50;1.10;;;23.70;55.40;;;;;;222308;1264;24245;-49
2023/12/12 02:49:42;;;;;;;2.30;1.10;;;23.70;55.00;;;;;;222600;1260;22779;-50
2023/12/12 02:54:47;;;;;;;1.10;0.80;;;23.60;55.30;;;;;;222430;1267;22511;-49
2023/12/12 02:59:51;;;;;;;1.80;1.50;;;23.60;55.00;;;;;;222250;1260;22717;-47
2023/12/12 03:04:55;;;;;;;1.20;1.00;;;23.60;55.30;;;;;;222283;1259;24291;-51
2023/12/12 03:09:59;;;;;;;1.60;1.20;;;23.40;55.30;;;;;;222478;1262;22510;-51
2023/12/12 03:15:04;;;;;;;0.90;0.70;;;23.30;55.50;;;;;;222812;1268;23123;-51
2023/12/12 03:20:08;;;;;;;2.10;1.00;;;23.30;55.50;;;;;;222778;1264;25322;-46
2023/12/12 03:25:13;;;;;;;1.20;1.10;;;23.70;54.90;;;;;;222824;1260;22526;-50
2023/12/12 03:30:17;;;;;;;0.70;0.70;;;24.10;54.00;;;;;;222662;1264;22694;-49
2023/12/12 03:35:21;;;;;;;1.20;0.90;;;24.30;53.50;;;;;;222610;1263;25478;-49
2023/12/12 03:40:26;;;;;;;1.90;0.90;;;24.40;53.40;;;;;;222833;1254;22517;-49
2023/12/12 03:45:30;;;;;;;2.10;0.80;;;24.40;53.70;;;;;;222565;1266;24254;-51
2023/12/12 03:50:34;;;;;;;2.10;0.80;;;24.30;53.50;;;;;;222302;1260;24095;-49
2023/12/12 03:55:38;;;;;;;2.80;0.70;;;24.30;53.50;;;;;;222579;1268;23009;-49
2023/12/12 04:00:43;;;;;;;1.00;0.90;;;24.30;53.50;;;;;;222818;1260;22629;-47
2023/12/12 04:05:47;;;;;;;1.10;0.90;;;24.20;53.60;;;;;;222420;1267;22660;-53
2023/12/12 04:10:52;;;;;;;1.20;0.90;;;24.00;53.90;;;;;;222369;1263;22661;-52
2023/12/12 04:15:56;;;;;;;1.50;0.80;;;23.90;54.20;;;;;;222718;1263;22791;-52
2023/12/12 04:21:00;;;;;;;1.00;0.90;;;23.70;54.40;;;;;;222848;1266;25271;-51
2023/12/12 04:26:05;;;;;;;1.00;0.60;;;23.70;54.40;;;;;;222739;1268;22511;-51
2023/12/12 04:31:16;;;;;;;1.30;0.90;;;23.70;54.50;;;;;;222606;1266;25401;-49
2023/12/12 04:36:21;;;;;;;2.40;0.80;;;23.60;54.50;;;;;;222422;1268;22873;-51
2023/12/12 04:41:25;;;;;;;0.70;0.70;;;23.50;54.60;;;;;;222385;1254;22506;-52
2023/12/12 04:46:29;;;;;;;2.50;0.80;;;23.50;55.10;;;;;;222466;1266;22591;-51
2023/12/12 04:51:34;;;;;;;0.70;0.70;;;23.40;54.90;;;;;;222264;1263;24439;-49
2023/12/12 04:56:38;;;;;;;2.40;1.00;;;23.50;54.80;;;;;;222571;1265;22530;-51
2023/12/12 05:01:43;;;;;;;1.00;0.80;;;23.70;54.70;;;;;;222151;1268;22654;-50
2023/12/12 05:06:47;;;;;;;0.90;0.80;;;24.00;53.60;;;;;;222436;1264;22649;-52
2023/12/12 05:11:52;;;;;;;1.70;0.70;;;24.20;53.30;;;;;;222457;1268;23444;-51
2023/12/12 05:16:56;;;;;;;1.20;1.10;;;24.20;53.10;;;;;;222294;1266;22781;-51
2023/12/12 05:22:12;;;;;;;0.50;0.50;;;24.20;53.00;;;;;;222527;1268;22524;-48
2023/12/12 05:27:18;;;;;;;1.60;0.50;;;24.20;53.70;;;;;;222186;1259;26503;-48
2023/12/12 05:32:22;;;;;;;0.50;0.50;;;24.10;53.40;;;;;;222626;1264;22524;-55
2023/12/12 05:37:26;;;;;;;1.30;1.00;;;24.00;53.40;;;;;;222277;1263;22552;-51
2023/12/12 05:42:31;;;;;;;0.60;0.60;;;23.90;53.90;;;;;;222613;1268;22525;-48
2023/12/12 05:47:35;;;;;;;1.00;0.70;;;23.90;53.80;;;;;;222412;1256;22511;-50
2023/12/12 05:52:40;;;;;;;0.50;0.50;;;23.70;54.00;;;;;;222411;1267;22534;-51
2023/12/12 05:57:44;;;;;;;0.70;0.70;;;23.70;54.80;;;;;;222639;1266;24156;-51
2023/12/12 06:02:48;;;;;;;2.00;0.40;;;23.70;54.30;;;;;;222258;1266;24193;-49
2023/12/12 06:07:53;;;;;;;0.90;0.70;;;23.60;54.10;;;;;;222455;1260;22564;-51
2023/12/12 06:12:57;;;;;;;0.50;0.50;;;23.50;54.10;;;;;;222520;1265;22530;-50
2023/12/12 06:18:01;;;;;;;0.60;0.50;;;23.40;54.40;;;;;;222706;1259;24214;-51
2023/12/12 06:23:06;;;;;;;0.50;0.50;;;23.40;54.30;;;;;;222138;1268;452621;-46
2023/12/12 06:28:11;;;;;;;0.60;0.60;;;23.30;54.60;;;;;;222920;1268;24234;-50
2023/12/12 06:33:15;;;;;;;1.30;0.50;;;23.30;54.70;;;;;;222605;1261;24333;-47
2023/12/12 06:38:19;;;;;;;2.40;0.70;;;23.30;54.70;;;;;;222465;1268;25465;-49
2023/12/12 06:43:23;;;;;;;1.90;0.90;;;23.30;54.80;;;;;;222387;1245;23145;-48
2023/12/12 06:48:28;;;;;;;2.50;0.60;;;23.30;55.10;;;;;;222489;1266;25237;-50
2023/12/12 06:53:32;;;;;;;4.10;0.80;;;23.30;55.40;;;;;;222018;1260;24171;-49
2023/12/12 06:58:36;;;;;;;4.90;0.90;;;23.20;55.40;;;;;;222898;1261;22548;-48
2023/12/12 07:03:40;;;;;;;1.00;0.50;;;23.10;55.30;;;;;;222536;1254;22623;-49
2023/12/12 07:08:44;;;;;;;6.90;0.90;;;23.00;54.90;;;;;;222689;1268;24196;-50
2023/12/12 07:13:51;;;;;;;1.30;0.60;;;23.10;55.50;;;;;;222841;1254;22593;-49
2023/12/12 07:18:58;;;;;;;2.90;0.90;;;22.90;55.80;;;;;;222632;1261;22518;-51
2023/12/12 07:24:04;;;;;;;1.20;0.50;;;23.10;56.20;;;;;;222922;1266;25319;-51
2023/12/12 07:29:08;;;;;;;0.50;0.50;;;23.50;54.80;;;;;;222827;1267;23714;-50
2023/12/12 07:34:13;;;;;;;3.50;0.60;;;23.80;53.80;;;;;;222949;1260;22599;-50
2023/12/12 07:39:17;;;;;;;3.80;0.60;;;23.80;53.50;;;;;;222929;1264;22552;-50
2023/12/12 07:44:22;;;;;;;1.80;0.90;;;24.00;53.30;;;;;;222653;1266;22518;-51
2023/12/12 07:49:26;;;;;;;1.80;0.50;;;24.00;53.40;;;;;;222087;1261;22507;-50
2023/12/12 07:54:30;;;;;;;6.40;0.80;;;24.00;53.10;;;;;;222474;1261;23990;-50
2023/12/12 07:59:35;;;;;;;2.10;0.90;;;24.10;53.00;;;;;;222784;1264;22525;-50
2023/12/12 08:04:39;;;;;;;1.70;0.50;;;23.90;53.30;;;;;;222569;1266;25406;-51
2023/12/12 08:09:54;;;;;;;1.80;0.70;;;23.80;53.70;;;;;;222448;1268;22524;-50
2023/12/12 08:15:00;;;;;;;3.90;0.80;;;23.80;53.90;;;;;;222495;1260;25905;-52
2023/12/12 08:20:05;;;;;;;2.90;1.10;;;23.70;53.60;;;;;;222494;1261;22515;-47
2023/12/12 08:25:09;;;;;;;2.30;0.90;;;23.70;53.60;;;;;;222912;1267;22537;-48
2023/12/12 08:30:13;;;;;;;2.30;0.80;;;23.70;53.50;;;;;;222378;1267;22956;-49
2023/12/12 08:35:18;;;;;;;3.60;0.80;;;23.60;53.90;;;;;;222385;1268;24441;-50
2023/12/12 08:40:22;;;;;;;3.70;0.70;;;23.40;54.30;;;;;;222383;1266;22559;-48
2023/12/12 08:45:26;;;;;;;2.90;1.60;;;23.30;54.70;;;;;;224441;1266;22627;-47
2023/12/12 08:50:31;;;;;;;6.10;1.10;;;23.10;54.40;;;;;;222636;1266;22543;-46
2023/12/12 08:55:35;;;;;;;2.00;1.10;;;23.00;54.60;;;;;;224253;1266;22514;-51
2023/12/12 09:00:39;;;;;;;1.60;0.90;;;23.00;54.50;;;;;;222150;1268;25410;-49
2023/12/12 09:05:44;;;;;;;0.90;0.80;;;22.80;54.60;;;;;;222684;1257;25712;-50
2023/12/12 09:10:48;;;;;;;1.60;0.80;;;22.80;55.30;;;;;;222692;1261;22811;-51
2023/12/12 09:15:54;;;;;;;1.40;0.80;;;22.90;54.70;;;;;;222366;1245;26586;-49
2023/12/12 09:20:58;;;;;;;2.10;1.10;;;23.20;53.90;;;;;;222683;1258;24230;-49
2023/12/12 09:26:04;;;;;;;1.70;1.00;;;23.60;52.90;;;;;;222585;1266;25266;-48
2023/12/12 09:31:10;;;;;;;1.90;0.80;;;23.80;52.70;;;;;;222423;1266;23507;-47
2023/12/12 09:36:14;;;;;;;2.80;0.80;;;24.00;51.90;;;;;;222695;1266;25402;-48
2023/12/12 09:41:23;;;;;;;1.60;0.90;;;24.00;51.60;;;;;;222666;1263;22511;-46
2023/12/12 09:46:28;;;;;;;4.00;0.90;;;23.90;51.80;;;;;;222713;1260;22628;-46
2023/12/12 09:51:33;;;;;;;0.70;0.70;;;23.80;52.20;;;;;;222504;1268;23878;-51
2023/12/12 09:56:38;;;;;;;1.40;0.90;;;23.60;52.30;;;;;;222373;1261;22644;-48
2023/12/12 10:01:46;;;;;;;2.00;1.00;;;23.60;52.40;;;;;;222012;1266;22571;-47
2023/12/12 10:06:54;;;;;;;0.60;0.60;;;23.50;52.40;;;;;;222765;1266;24370;-51
2023/12/12 10:11:59;;;;;;;1.10;0.70;;;23.40;52.70;;;;;;222504;1268;22601;-48
2023/12/12 10:17:04;;;;;;;1.00;0.80;;;23.20;53.00;;;;;;222553;1261;22713;-47
2023/12/12 10:22:10;;;;;;;1.40;1.10;;;23.20;53.00;;;;;;222375;1269;24191;-49
2023/12/12 10:27:20;;;;;;;1.20;0.90;;;23.10;53.10;;;;;;222433;1269;24233;-47
2023/12/12 10:32:24;;;;;;;2.10;0.90;;;23.10;53.10;;;;;;222570;1256;24205;-50
2023/12/12 10:37:29;;;;;;;2.40;0.80;;;23.30;52.90;;;;;;222507;1269;22518;-50
2023/12/12 10:42:33;;;;;;;1.50;0.90;;;23.30;53.40;;;;;;222583;1263;23459;-49
2023/12/12 10:47:50;;;;;;;1.90;0.90;;;23.10;53.70;;;;;;222489;1260;24375;-48
2023/12/12 10:52:57;;;;;;;1.90;0.90;;;23.00;54.20;;;;;;222486;1260;22514;-50
2023/12/12 10:58:03;;;;;;;2.30;1.00;;;23.00;54.60;;;;;;222393;1263;22520;-48
2023/12/12 11:03:08;;;;;;;1.10;0.70;;;22.90;55.00;;;;;;222778;1269;24247;-48
2023/12/12 11:08:13;;;;;;;1.20;0.80;;;23.20;55.20;;;;;;222411;1263;24313;-47
2023/12/12 11:13:20;;;;;;;2.40;0.80;;;23.40;54.70;;;;;;222279;1266;22533;-50
2023/12/12 11:18:24;;;;;;;2.70;0.90;;;23.70;55.40;;;;;;222721;1259;23305;-50
2023/12/12 11:23:53;;;;;;;2.10;0.70;;;23.70;54.90;;;;;;222526;1267;25208;-50
2023/12/12 11:28:58;;;;;;;0.80;0.60;;;23.80;55.10;;;;;;222558;1266;22518;-47
2023/12/12 11:34:10;;;;;;;1.20;0.70;;;23.80;55.50;;;;;;222621;1267;24364;-46
2023/12/12 11:39:30;;;;;;;0.90;0.60;;;23.60;55.50;;;;;;222749;1268;22517;-51
2023/12/12 11:44:46;;;;;;;0.80;0.80;;;23.50;55.90;;;;;;222637;1266;24483;-48
2023/12/12 11:50:15;;;;;;;0.80;0.60;;;23.40;55.80;;;;;;222596;1263;22524;-48
2023/12/12 11:55:22;;;;;;;1.30;1.00;;;23.30;56.10;;;;;;222857;1264;22531;-46
2023/12/12 12:00:31;;;;;;;0.70;0.70;;;23.30;56.20;;;;;;222912;1263;22528;-49
2023/12/12 12:05:35;;;;;;;1.20;0.60;;;23.40;56.20;;;;;;222590;1263;24370;-48
2023/12/12 12:10:39;;;;;;;1.20;1.10;;;23.40;56.00;;;;;;222786;1267;22576;-51
2023/12/12 12:15:49;;;;;;;1.60;0.80;;;23.40;56.30;;;;;;222729;1264;23142;-49
2023/12/12 12:20:53;;;;;;;1.00;0.90;;;23.30;56.20;;;;;;223149;1261;22540;-46
2023/12/12 12:26:01;;;;;;;0.60;0.60;;;23.30;56.70;;;;;;222549;1268;22518;-49
2023/12/12 12:31:05;;;;;;;2.30;0.80;;;23.20;57.00;;;;;;222875;1266;22524;-46
2023/12/12 12:36:10;;;;;;;2.10;0.80;;;23.10;56.60;;;;;;222810;1260;22527;-48
2023/12/12 12:41:23;;;;;;;2.60;0.80;;;23.10;57.20;;;;;;222447;1268;22669;-48
2023/12/12 12:46:27;;;;;;;1.60;0.70;;;23.00;57.40;;;;;;222289;1261;24221;-50
2023/12/12 12:51:31;;;;;;;1.60;0.50;;;23.20;56.00;;;;;;222785;1268;22529;-48
2023/12/12 12:56:36;;;;;;;0.80;0.80;;;23.60;55.60;;;;;;222862;1268;22532;-47
2023/12/12 13:01:41;;;;;;;1.40;0.70;;;23.70;55.30;;;;;;222994;1260;22524;-52
2023/12/12 13:06:46;;;;;;;0.70;0.70;;;23.80;55.60;;;;;;222682;1264;23220;-49
2023/12/12 13:11:50;;;;;;;0.70;0.60;;;23.80;55.40;;;;;;222183;1266;22554;-46
2023/12/12 13:16:53;;;;;;;0.80;0.70;;;23.70;55.80;;;;;;222122;1260;22630;-48
2023/12/12 13:21:58;;;;;;;1.20;1.10;;;23.70;56.30;;;;;;222548;1264;22524;-51
2023/12/12 13:27:03;;;;;;;1.10;0.70;;;23.60;56.10;;;;;;222909;1263;22515;-48
2023/12/12 13:32:07;;;;;;;0.60;0.60;;;23.50;55.90;;;;;;223073;1254;22537;-50
2023/12/12 13:37:12;;;;;;;1.30;0.90;;;23.50;56.40;;;;;;222668;1269;25329;-49
2023/12/12 13:42:16;;;;;;;1.20;0.80;;;23.50;55.80;;;;;;222711;1264;25335;-48
2023/12/12 13:47:21;;;;;;;0.60;0.60;;;23.50;56.30;;;;;;222586;1269;22838;-48
2023/12/12 13:52:25;;;;;;;0.90;0.80;;;23.40;55.80;;;;;;222765;1264;23897;-49
2023/12/12 13:57:29;;;;;;;0.60;0.60;;;23.40;55.90;;;;;;222858;1268;23626;-49
2023/12/12 14:02:34;;;;;;;1.00;0.60;;;23.30;56.10;;;;;;222741;1264;22654;-47
2023/12/12 14:07:39;;;;;;;1.30;0.70;;;23.30;56.10;;;;;;222523;1263;22545;-49
2023/12/12 14:12:43;;;;;;;0.70;0.60;;;23.20;56.10;;;;;;222710;1261;22534;-51
2023/12/12 14:17:47;;;;;;;1.10;1.00;;;23.10;56.30;;;;;;222646;1267;22643;-49
2023/12/12 14:22:52;;;;;;;1.00;0.90;;;23.10;56.40;;;;;;222316;1254;22520;-48
2023/12/12 14:28:09;;;;;;;1.00;0.80;;;23.10;56.60;;;;;;222114;1268;22667;-49
2023/12/12 14:33:13;;;;;;;1.00;0.90;;;23.40;56.00;;;;;;222337;1264;22640;-48
2023/12/12 14:38:17;;;;;;;0.70;0.70;;;23.70;55.90;;;;;;222274;1268;22519;-47
2023/12/12 14:43:23;;;;;;;1.00;0.80;;;23.90;55.20;;;;;;222661;1257;24211;-48
2023/12/12 14:48:29;;;;;;;1.30;0.90;;;23.90;54.90;;;;;;222694;1246;24378;-47
2023/12/12 14:53:34;;;;;;;0.90;0.80;;;23.90;55.40;;;;;;222585;1266;22942;-47
2023/12/12 14:58:38;;;;;;;0.80;0.70;;;23.80;55.20;;;;;;222250;1269;22594;-48
2023/12/12 15:03:42;;;;;;;1.00;0.80;;;23.70;55.40;;;;;;222192;1269;22515;-47
2023/12/12 15:08:46;;;;;;;1.40;0.90;;;23.60;55.50;;;;;;222061;1268;22606;-48
2023/12/12 15:13:51;;;;;;;1.20;1.00;;;23.60;55.70;;;;;;222344;1267;24794;-47
2023/12/12 15:18:56;;;;;;;1.90;1.00;;;23.60;55.30;;;;;;222475;1260;25375;-50
2023/12/12 15:24:00;;;;;;;1.10;1.00;;;23.60;55.20;;;;;;222556;1256;24265;-47
2023/12/12 15:29:05;;;;;;;1.10;0.90;;;23.50;55.30;;;;;;222940;1267;22518;-46
2023/12/12 15:34:10;;;;;;;1.90;1.30;;;23.40;55.20;;;;;;222499;1268;25334;-49
2023/12/12 15:39:14;;;;;;;2.70;1.40;;;23.30;55.40;;;;;;222504;1253;22536;-50
2023/12/12 15:44:19;;;;;;;3.10;2.00;;;23.30;55.60;;;;;;222820;1263;22564;-52
2023/12/12 15:49:23;;;;;;;2.70;1.60;;;23.10;55.80;;;;;;222325;1254;24352;-48
2023/12/12 15:54:27;;;;;;;4.10;1.70;;;23.10;56.00;;;;;;222616;1254;22620;-46
2023/12/12 15:59:35;;;;;;;3.70;2.00;;;23.30;55.70;;;;;;222421;1260;22768;-52
2023/12/12 16:04:43;;;;;;;9.40;2.40;;;23.50;55.50;;;;;;222458;1254;22515;-47
2023/12/12 16:09:47;;;;;;;4.60;1.80;;;23.80;54.60;;;;;;222774;1254;22775;-52
2023/12/12 16:14:52;;;;;;;5.60;2.40;;;24.00;54.20;;;;;;222604;1260;24070;-50
2023/12/12 16:19:57;;;;;;;6.40;2.60;;;24.00;54.20;;;;;;222674;1263;22532;-51
2023/12/12 16:25:05;;;;;;;4.50;2.50;;;24.00;54.40;;;;;;222803;1260;25461;-48
2023/12/12 16:30:10;;;;;;;7.60;2.70;;;23.90;54.60;;;;;;222418;1260;24055;-48
2023/12/12 16:35:14;;;;;;;5.20;2.70;;;23.90;54.70;;;;;;222628;1264;22528;-48
2023/12/12 16:40:19;;;;;;;5.30;2.50;;;23.80;54.60;;;;;;222654;1268;22545;-48
2023/12/12 16:45:24;;;;;;;6.40;2.90;;;23.90;54.50;;;;;;222710;1268;24236;-47
2023/12/12 16:50:29;;;;;;;9.10;4.80;;;23.90;54.20;;;;;;222522;1261;22561;-47
2023/12/12 16:55:34;;;;;;;6.70;3.50;;;23.80;55.80;;;;;;222996;1268;25270;-47
2023/12/12 17:00:39;;;;;;;5.30;3.50;;;23.70;56.60;;;;;;222479;1266;22538;-50
2023/12/12 17:05:43;;;;;;;5.70;3.60;;;23.60;57.70;;;;;;222496;1263;22517;-46
2023/12/12 17:10:47;;;;;;;7.00;3.60;;;23.60;58.50;;;;;;224534;1260;26294;-48
2023/12/12 17:15:56;;;;;;;7.70;4.20;;;23.80;59.00;;;;;;222891;1261;24199;-47
2023/12/12 17:21:05;;;;;;;9.10;3.90;;;23.80;59.70;;;;;;222878;1268;22531;-50
2023/12/12 17:26:09;;;;;;;9.50;4.20;;;23.80;61.30;;;;;;222626;1263;22643;-50
2023/12/12 17:31:14;;;;;;;6.30;4.20;;;23.70;61.30;;;;;;222801;1268;24078;-49
2023/12/12 17:36:18;;;;;;;10.30;4.10;;;23.60;61.40;;;;;;222434;1256;22518;-47
2023/12/12 17:41:23;;;;;;;11.10;4.70;;;23.50;61.70;;;;;;222397;1260;22549;-48
2023/12/12 17:46:29;;;;;;;10.40;4.50;;;23.40;61.90;;;;;;228389;1264;22698;-49
2023/12/12 17:51:33;;;;;;;7.50;4.10;;;23.50;61.50;;;;;;222326;1264;24200;-59
2023/12/12 17:56:38;;;;;;;6.40;3.90;;;23.60;60.90;;;;;;222415;1260;23967;-52
2023/12/12 18:01:43;;;;;;;8.70;4.10;;;23.40;61.10;;;;;;222430;1260;22659;-51
2023/12/12 18:06:47;;;;;;;7.60;4.10;;;23.40;61.10;;;;;;222240;1260;24328;-56
2023/12/12 18:11:51;;;;;;;14.40;4.70;;;23.30;61.40;;;;;;222757;1256;22610;-60
2023/12/12 18:16:56;;;;;;;7.70;4.50;;;23.40;61.30;;;;;;222172;1266;22567;-50
2023/12/12 18:21:59;;;;;;;7.10;4.70;;;23.30;61.30;;;;;;222203;1260;257474;-56
2023/12/12 18:27:05;;;;;;;5.00;4.20;;;23.20;61.20;;;;;;222542;1261;22514;-52
2023/12/12 18:32:10;;;;;;;7.00;4.50;;;23.30;60.60;;;;;;222603;1264;22558;-52
2023/12/12 18:37:14;;;;;;;7.20;4.70;;;23.20;60.50;;;;;;222668;1268;26141;-48
2023/12/12 18:42:19;;;;;;;7.10;5.30;;;23.10;60.20;;;;;;222624;1264;24189;-53
2023/12/12 18:47:23;;;;;;;11.40;5.00;;;23.10;60.00;;;;;;222571;1260;24256;-57
2023/12/12 18:52:27;;;;;;;9.00;4.70;;;23.00;59.50;;;;;;222739;1266;24220;-52
2023/12/12 18:57:33;;;;;;;11.70;5.30;;;22.90;60.20;;;;;;222262;1263;22537;-53
2023/12/12 19:02:39;;;;;;;10.10;5.00;;;22.90;59.80;;;;;;222272;1260;25403;-58
2023/12/12 19:07:45;;;;;;;8.70;6.30;;;22.90;59.60;;;;;;222076;1264;24195;-51
2023/12/12 19:12:51;;;;;;;10.80;6.30;;;22.90;59.70;;;;;;221970;1260;25055;-58
2023/12/12 19:17:57;;;;;;;12.50;5.70;;;23.00;58.60;;;;;;222682;1264;25108;-50
2023/12/12 19:23:02;;;;;;;9.00;5.70;;;23.20;58.30;;;;;;223380;1264;22518;-52
2023/12/12 19:28:07;;;;;;;10.70;5.90;;;23.60;57.30;;;;;;221984;1260;22511;-53
2023/12/12 19:33:13;;;;;;;12.90;6.50;;;23.70;56.80;;;;;;222467;1261;22729;-52
2023/12/12 19:38:19;;;;;;;16.00;6.40;;;23.90;56.60;;;;;;222877;1263;24791;-50
2023/12/12 19:43:25;;;;;;;16.40;8.00;;;23.90;56.20;;;;;;222407;1264;22646;-51
2023/12/12 19:48:30;;;;;;;15.80;8.80;;;23.80;55.90;;;;;;222493;1257;23786;-53
2023/12/12 19:53:36;;;;;;;11.90;9.00;;;23.80;56.10;;;;;;222743;1260;24292;-53
2023/12/12 19:58:42;;;;;;;17.00;8.90;;;23.80;55.70;;;;;;222819;1264;25261;-52
2023/12/12 20:03:47;;;;;;;17.20;9.80;;;23.90;55.60;;;;;;222500;1264;22626;-50
2023/12/12 20:08:53;;;;;;;16.50;9.70;;;23.90;55.80;;;;;;222896;1256;22772;-51
2023/12/12 20:14:01;;;;;;;15.60;10.50;;;23.70;55.40;;;;;;223002;1254;24235;-51
2023/12/12 20:19:07;;;;;;;24.50;11.80;;;23.80;54.90;;;;;;222868;1260;23815;-49
2023/12/12 20:24:15;;;;;;;22.70;11.90;;;23.60;55.30;;;;;;222600;1260;27071;-52
2023/12/12 20:29:25;;;;;;;18.30;11.00;;;23.60;55.90;;;;;;222374;1253;23923;-57
2023/12/12 20:34:33;;;;;;;18.50;12.60;;;23.70;55.80;;;;;;222467;1263;22592;-54
2023/12/12 20:39:40;;;;;;;27.40;13.10;;;23.70;55.80;;;;;;222313;1260;25775;-57
2023/12/12 20:44:47;;;;;;;21.80;12.60;;;23.60;56.00;;;;;;222703;1267;22524;-55
2023/12/12 20:49:54;;;;;;;22.80;12.60;;;23.60;55.40;;;;;;222428;1260;25284;-47
2023/12/12 20:55:02;;;;;;;22.20;12.80;;;23.50;56.00;;;;;;222486;1264;22770;-47
2023/12/12 21:00:10;;;;;;;23.10;13.20;;;23.40;56.20;;;;;;222093;1269;22538;-50
2023/12/12 21:05:15;;;;;;;20.20;12.90;;;23.30;56.60;;;;;;221753;1263;24220;-48
2023/12/12 21:10:19;;;;;;;19.80;13.30;;;23.30;58.20;;;;;;221680;1263;22785;-47
2023/12/12 21:15:24;;;;;;;23.70;13.00;;;23.20;58.00;;;;;;221673;1271;25290;-50
2023/12/12 21:20:28;;;;;;;25.20;13.00;;;23.20;57.80;;;;;;221670;1263;22759;-48
2023/12/12 21:25:32;;;;;;;26.60;14.30;;;23.10;58.00;;;;;;221588;1271;22923;-46
2023/12/12 21:30:37;;;;;;;22.70;13.00;;;23.10;58.00;;;;;;221786;1264;22649;-47
2023/12/12 21:35:43;;;;;;;19.80;12.90;;;23.00;58.60;;;;;;222392;1268;23000;-47
2023/12/12 21:40:47;;;;;;;20.00;12.20;;;23.30;57.70;;;;;;222605;1268;23761;-45
2023/12/12 21:45:53;;;;;;;23.40;12.90;;;23.70;56.90;;;;;;222350;1263;24340;-47
2023/12/12 21:50:57;;;;;;;21.60;12.20;;;23.90;56.30;;;;;;222522;1262;24244;-46
2023/12/12 21:56:01;;;;;;;18.90;11.90;;;24.10;55.90;;;;;;222286;1263;24263;-46
2023/12/12 22:01:11;;;;;;;19.70;12.60;;;24.20;55.60;;;;;;222480;1263;22588;-48
2023/12/12 22:06:16;;;;;;;18.50;12.20;;;24.30;55.00;;;;;;222630;1264;25356;-45
2023/12/12 22:11:21;;;;;;;21.20;12.60;;;24.20;55.40;;;;;;222530;1264;22542;-48
2023/12/12 22:16:29;;;;;;;31.70;14.50;;;24.10;57.00;;;;;;222495;1264;24204;-46
2023/12/12 22:21:38;;;;;;;31.10;14.80;;;24.20;59.00;;;;;;222636;1266;22651;-48
2023/12/12 22:26:43;;;;;;;27.60;14.50;;;24.10;59.40;;;;;;222515;1260;22647;-47
2023/12/12 22:31:48;;;;;;;23.40;14.10;;;24.10;59.20;;;;;;222633;1260;24362;-47
2023/12/12 22:36:52;;;;;;;22.80;13.50;;;24.00;58.90;;;;;;222688;1266;25322;-47
2023/12/12 22:41:57;;;;;;;18.40;12.50;;;23.90;59.40;;;;;;222789;1264;24263;-46
2023/12/12 22:47:01;;;;;;;21.60;12.70;;;23.80;59.40;;;;;;222798;1256;25274;-47
2023/12/12 22:52:06;;;;;;;19.10;12.70;;;23.80;59.30;;;;;;222924;1260;24172;-50
2023/12/12 22:57:10;;;;;;;17.60;12.10;;;23.70;59.20;;;;;;222892;1260;22522;-46
2023/12/12 23:02:14;;;;;;;20.00;12.80;;;23.60;59.10;;;;;;222503;1260;22599;-47
2023/12/12 23:07:19;;;;;;;20.90;13.60;;;23.40;58.90;;;;;;222623;1257;22514;-47
2023/12/12 23:12:23;;;;;;;20.30;12.40;;;23.50;59.00;;;;;;222553;1263;22941;-51
2023/12/12 23:17:29;;;;;;;18.00;13.00;;;23.40;59.30;;;;;;222598;1254;24232;-48
2023/12/12 23:22:34;;;;;;;22.60;12.10;;;23.30;59.00;;;;;;222866;1262;24260;-47
2023/12/12 23:27:39;;;;;;;14.40;12.30;;;23.40;58.90;;;;;;222770;1263;22979;-48
2023/12/12 23:32:43;;;;;;;16.10;11.40;;;23.60;58.70;;;;;;222852;1264;22518;-48
2023/12/12 23:37:48;;;;;;;17.40;12.20;;;23.90;57.90;;;;;;222906;1263;24202;-46
2023/12/12 23:42:52;;;;;;;15.80;12.20;;;24.10;57.30;;;;;;222539;1268;22514;-46
2023/12/12 23:47:57;;;;;;;17.20;12.00;;;24.30;56.80;;;;;;222593;1261;22514;-45
2023/12/12 23:53:01;;;;;;;16.80;11.80;;;24.30;56.70;;;;;;222472;1262;22527;-48
2023/12/12 23:58:05;;;;;;;14.60;11.40;;;24.30;56.40;;;;;;222452;1264;25363;-50
